Latest Weather Observations for Falls Creek

IDV60801

Issued at 5:02 am EDT Thursday 29 January 2015 (issued every 30 minutes, with the page automatically refreshed every 10 minutes)

About weather observations | Map of weather stations | Latest weather observations for VIC | Other Formats
Station Details ID: 083084 Name: FALLS CREEK Lat: -36.87 Lon: 147.28 Height: 1765.0 m
Data from the previous 72 hours. | See also: Recent months at Falls Creek
Date/Time
EDT
Temp
°C
App
Temp
°C
Dew
Point
Rel
Hum
%
Delta-T
°C
Wind Press
QNH
hPa
Press
MSL
hPa
Rain
since 9 am
mm
Dir
 
Spd
km/h
Gust
km/h
Spd
kts
Gust
kts
29/05:00am 1.8 -5.6 1.8 100 0.0 SSE 30 43 16 23 1016.1 1007.6 1.6
29/04:30am 1.7 -6.1 1.7 100 0.0 SSE 32 46 17 25 1015.6 1007.1 1.6
29/04:00am 1.7 -6.3 1.7 100 0.0 SSE 33 43 18 23 1016.3 1007.9 1.6
29/03:30am 1.6 -6.8 1.6 100 0.0 SSE 35 46 19 25 1016.4 1008.0 1.6
29/03:00am 1.2 -6.9 1.2 100 0.0 SSE 33 52 18 28 1016.5 1008.1 1.6
29/02:58am 1.2 -6.7 1.2 100 0.0 SSE 32 52 17 28 1016.5 1008.1 1.6
29/02:30am 0.8 -8.1 0.8 100 0.0 SSE 37 50 20 27 1016.9 1008.5 1.6
29/02:08am 1.2 -7.6 1.2 100 0.0 SSE 37 56 20 30 1017.1 1008.7 1.6
29/02:00am 1.4 -8.5 1.4 100 0.0 SSE 43 56 23 30 1017.0 1008.6 1.6
29/01:42am 1.5 -6.9 1.5 100 0.0 SSE 35 56 19 30 1017.0 1008.6 1.6
29/01:30am 1.2 -7.6 1.2 100 0.0 SSE 37 50 20 27 1017.3 1008.8 1.6
29/01:00am 1.4 -7.0 1.4 100 0.0 SSE 35 54 19 29 1017.5 1009.1 1.6
29/12:30am 1.7 -5.7 1.7 100 0.0 SSE 30 48 16 26 1017.9 1009.4 1.6
29/12:10am 1.9 -5.5 1.9 100 0.0 SSE 30 50 16 27 1018.0 1009.6 1.6
29/12:00am 2.1 -5.3 2.1 100 0.0 SE 30 46 16 25 1018.2 1009.8 1.6
 
Date/Time
EDT
Temp
°C
App
Temp
°C
Dew
Point
Rel
Hum
%
Delta-T
°C
Wind Press
QNH
hPa
Press
MSL
hPa
Rain
since 9 am
mm
Dir
 
Spd
km/h
Gust
km/h
Spd
kts
Gust
kts
28/11:30pm 2.2 -4.4 2.2 100 0.0 SSE 26 43 14 23 1018.8 1010.4 1.6
28/11:00pm 2.4 -4.1 2.4 100 0.0 SSE 26 39 14 21 1019.2 1010.8 1.6
28/10:30pm 2.7 -5.5 2.7 100 0.0 SSE 35 50 19 27 1019.4 1011.0 1.6
28/10:00pm 2.9 -7.4 2.9 100 0.0 SSE 46 57 25 31 1018.4 1010.1 1.6
28/09:30pm 3.3 -6.9 3.3 100 0.0 SSE 46 61 25 33 1018.1 1009.7 1.6
28/09:12pm 3.6 -6.0 3.6 100 0.0 SSE 43 61 23 33 1017.7 1009.3 1.6
28/09:00pm 3.8 -5.7 3.8 100 0.0 SSE 43 57 23 31 1017.7 1009.3 1.6
28/08:30pm 4.3 -4.4 4.3 100 0.0 SSE 39 52 21 28 1018.3 1009.9 1.6
28/08:00pm 4.5 -3.7 4.5 100 0.0 SSE 37 52 20 28 1018.7 1010.3 1.6
28/07:30pm 4.8 -3.8 4.8 100 0.0 SSE 39 54 21 29 1018.4 1010.1 1.6
28/07:00pm 4.9 -1.6 4.9 100 0.0 SSE 28 44 15 24 1018.6 1010.2 1.6
28/06:42pm 4.9 -1.6 4.9 100 0.0 SSE 28 46 15 25 1018.7 1010.3 1.6
28/06:30pm 4.9 -2.3 4.9 100 0.0 SSE 32 43 17 23 1018.8 1010.4 1.6
28/06:00pm 5.8 0.7 5.8 100 0.0 SSE 22 33 12 18 1018.9 1010.6 1.6
28/05:30pm 6.2 0.8 6.2 100 0.0 SSE 24 39 13 21 1018.9 1010.6 1.6
28/05:00pm 5.2 -0.1 5.2 100 0.0 SE 22 37 12 20 1019.0 1010.7 1.4
28/04:30pm 6.2 0.7 6.1 99 0.0 SSE 24 33 13 18 1019.2 1010.8 0.6
28/04:00pm 6.5 2.1 6.4 99 0.1 ESE 19 28 10 15 1019.5 1011.2 0.0
28/03:30pm 6.8 2.0 5.7 93 0.5 SE 20 33 11 18 1019.5 1011.2 0.0
28/03:00pm 8.8 4.9 5.4 79 1.7 SE 15 22 8 12 1019.6 1011.3 0.0
28/02:30pm 9.3 4.8 5.9 79 1.7 ESE 19 28 10 15 1019.6 1011.3 0.0
28/02:00pm 8.4 4.4 6.5 88 1.0 SSE 17 26 9 14 1019.8 1011.4 0.0
28/01:30pm 8.5 4.1 6.5 87 1.0 SE 19 28 10 15 1019.9 1011.5 0.0
28/01:00pm 7.5 2.7 7.5 100 0.0 SSE 22 33 12 18 1019.8 1011.4 0.0
28/12:30pm 7.6 2.9 7.6 100 0.0 SE 22 33 12 18 1019.9 1011.5 0.0
28/12:00pm 6.8 2.3 6.8 100 0.0 SSE 20 32 11 17 1019.8 1011.4 0.0
28/11:30am 7.3 2.5 7.3 100 0.0 SSE 22 32 12 17 1019.8 1011.4 0.0
28/11:00am 6.4 1.8 6.4 100 0.0 SSE 20 32 11 17 1019.9 1011.5 0.0
28/10:30am 5.8 1.2 5.8 100 0.0 SSE 19 32 10 17 1019.8 1011.4 0.0
28/10:00am 6.0 1.3 6.0 100 0.0 SSE 20 30 11 16 1019.5 1011.2 0.0
28/09:30am 5.4 0.2 5.4 100 0.0 SSE 22 33 12 18 1019.6 1011.3 0.0
28/09:00am 5.2 -0.1 5.2 100 0.0 SSE 22 32 12 17 1019.4 1011.0 0.0
28/08:30am 5.1 0.2 5.1 100 0.0 SSE 20 32 11 17 1019.2 1010.8 0.0
28/08:00am 5.2 0.5 5.2 100 0.0 SSE 19 26 10 14 1018.8 1010.4 0.0
28/07:30am 5.0 0.3 5.0 100 0.0 SE 19 28 10 15 1018.4 1010.1 0.0
28/07:00am 4.8 0.4 4.8 100 0.0 SSE 17 26 9 14 1018.1 1009.7 0.0
28/06:30am 5.0 0.6 5.0 100 0.0 SE 17 24 9 13 1017.9 1009.4 0.0
28/06:00am 5.0 0.6 5.0 100 0.0 SSE 17 22 9 12 1017.6 1009.2 0.0
28/05:30am 5.0 0.3 5.0 100 0.0 SSE 19 28 10 15 1017.5 1009.1 0.0
28/05:00am 5.0 0.3 5.0 100 0.0 SSE 19 24 10 13 1017.4 1009.0 0.0
28/04:30am 5.1 0.2 5.1 100 0.0 SE 20 32 11 17 1017.1 1008.7 0.0
28/04:00am 5.1 0.4 5.1 100 0.0 SE 19 28 10 15 1017.1 1008.7 0.0
28/03:30am 5.3 1.0 5.3 100 0.0 SE 17 24 9 13 1017.4 1009.0 0.0
28/03:00am 5.3 0.1 5.3 100 0.0 SE 22 28 12 15 1017.5 1009.1 0.0
28/02:30am 5.4 0.6 5.4 100 0.0 SE 20 30 11 16 1017.9 1009.4 0.0
28/02:00am 5.2 0.3 5.2 100 0.0 SE 20 28 11 15 1018.0 1009.6 0.0
28/01:30am 5.2 0.5 5.2 100 0.0 SSE 19 28 10 15 1018.1 1009.7 0.0
28/01:00am 5.3 0.4 5.3 100 0.0 SE 20 32 11 17 1018.1 1009.7 0.0
28/12:30am 5.4 0.8 5.4 100 0.0 SE 19 26 10 14 1018.2 1009.8 0.0
28/12:00am 5.3 0.6 5.3 100 0.0 SE 19 28 10 15 1018.2 1009.8 0.0
 
Date/Time
EDT
Temp
°C
App
Temp
°C
Dew
Point
Rel
Hum
%
Delta-T
°C
Wind Press
QNH
hPa
Press
MSL
hPa
Rain
since 9 am
mm
Dir
 
Spd
km/h
Gust
km/h
Spd
kts
Gust
kts
27/11:30pm 5.2 0.5 5.2 100 0.0 SSE 19 28 10 15 1018.3 1009.9 0.0
27/11:00pm 5.2 0.3 5.2 100 0.0 SSE 20 30 11 16 1018.2 1009.8 0.0
27/10:30pm 5.2 -0.4 5.2 100 0.0 SSE 24 32 13 17 1018.1 1009.7 0.0
27/10:00pm 5.6 0.8 5.6 100 0.0 SSE 20 30 11 16 1017.9 1009.4 0.0
27/09:30pm 5.5 0.7 5.5 100 0.0 SSE 20 28 11 15 1017.7 1009.3 0.0
27/09:00pm 5.6 0.8 5.6 100 0.0 SSE 20 28 11 15 1017.5 1009.1 0.0
27/08:30pm 5.7 0.9 5.7 100 0.0 SSE 20 30 11 16 1017.4 1009.0 0.0
27/08:00pm 5.9 0.4 5.9 100 0.0 SSE 24 32 13 17 1017.3 1008.8 0.0
27/07:30pm 6.0 0.5 6.0 100 0.0 SSE 24 33 13 18 1017.0 1008.6 0.0
27/07:00pm 6.2 1.1 6.2 100 0.0 SSE 22 32 12 17 1016.8 1008.3 0.0
27/06:30pm 6.4 1.4 6.4 100 0.0 SSE 22 32 12 17 1016.5 1008.1 0.0
27/06:00pm 6.6 1.6 6.6 100 0.0 SSE 22 32 12 17 1016.4 1008.0 0.0
27/05:30pm 7.0 2.1 7.0 100 0.0 SSE 22 28 12 15 1016.5 1008.1 0.0
27/05:00pm 7.5 3.3 7.5 100 0.0 SSE 19 28 10 15 1016.7 1008.2 0.0
27/04:30pm 7.7 3.5 7.6 99 0.1 SSE 19 26 10 14 1016.7 1008.2 0.0
27/04:00pm 8.8 5.1 8.0 95 0.4 SE 17 26 9 14 1016.9 1008.5 0.0
27/03:30pm 8.9 6.0 8.0 94 0.5 SSE 13 19 7 10 1016.9 1008.5 0.0
27/03:00pm 10.0 6.7 8.1 88 1.0 SE 15 22 8 12 1017.0 1008.6 0.0
27/02:30pm 10.4 6.8 8.2 86 1.2 SE 17 24 9 13 1017.1 1008.7 0.0
27/02:00pm 13.0 10.0 9.3 78 2.1 SE 15 24 8 13 1017.1 1008.7 0.0
27/01:30pm 12.3 9.6 8.8 79 1.9 SE 13 19 7 10 1017.4 1009.0 0.0
27/01:00pm 10.3 6.6 8.1 86 1.2 SE 17 22 9 12 1017.6 1009.2 0.0
27/12:30pm 11.7 9.6 8.4 80 1.8 E 9 17 5 9 1017.9 1009.4 0.0
27/12:00pm 12.4 8.7 6.2 66 3.2 NNE 15 24 8 13 1017.9 1009.4 0.0
27/11:30am 11.8 9.3 8.1 78 2.0 N 11 19 6 10 1017.9 1009.4 0.0
27/11:00am 11.0 8.0 7.9 81 1.7 N 13 22 7 12 1017.9 1009.4 0.0
27/10:30am 11.3 8.4 8.3 82 1.6 N 13 20 7 11 1017.7 1009.3 0.0
27/10:00am 9.6 6.0 8.5 93 0.6 NNW 17 26 9 14 1017.7 1009.3 0.0
27/09:30am 8.9 5.4 8.9 100 0.0 N 17 30 9 16 1017.7 1009.3 0.0
27/09:00am 8.6 4.5 8.6 100 0.0 N 20 28 11 15 1017.5 1009.1 0.0
27/08:30am 8.2 4.2 8.2 100 0.0 N 19 28 10 15 1017.1 1008.7 0.0
27/08:00am 8.0 4.3 8.0 100 0.0 NNW 17 26 9 14 1017.0 1008.6 0.0
27/07:30am 7.6 3.8 7.6 100 0.0 NNW 17 22 9 12 1016.8 1008.3 0.0
27/07:00am 7.3 3.8 7.3 100 0.0 NNW 15 20 8 11 1016.8 1008.3 0.0
27/06:30am 7.2 4.1 7.2 100 0.0 NNW 13 17 7 9 1016.4 1008.0 0.0
27/06:00am 7.1 3.6 7.1 100 0.0 NNW 15 20 8 11 1016.3 1007.9 0.0
27/05:30am 6.6 3.0 6.6 100 0.0 N 15 20 8 11 1015.9 1007.5 0.0
27/05:00am 5.9 3.8 5.9 100 0.0 NNW 6 9 3 5 1016.2 1007.7 0.0
27/04:30am 5.3 2.9 5.3 100 0.0 NE 7 11 4 6 1016.2 1007.7 0.0
27/04:00am 5.0 2.2 5.0 100 0.0 ENE 9 13 5 7 1016.2 1007.7 0.0
27/03:30am 4.6 1.7 4.6 100 0.0 E 9 15 5 8 1016.4 1008.0 0.0
27/03:00am 3.9 0.9 3.9 100 0.0 SE 9 15 5 8 1016.8 1008.3 0.0
27/02:30am 3.8 0.4 3.8 100 0.0 SSE 11 15 6 8 1016.9 1008.5 0.0
27/02:00am 3.8 -0.4 3.8 100 0.0 SE 15 20 8 11 1016.9 1008.5 0.0
27/01:30am 3.8 -0.8 3.8 100 0.0 SE 17 24 9 13 1017.0 1008.6 0.0
27/01:00am 3.8 -1.2 3.8 100 0.0 SE 19 28 10 15 1017.3 1008.8 0.0
27/12:30am 3.8 -1.2 3.8 100 0.0 SSE 19 28 10 15 1017.4 1009.0 0.0
27/12:00am 3.8 -1.2 3.8 100 0.0 SSE 19 30 10 16 1017.4 1009.0 0.0
 
Date/Time
EDT
Temp
°C
App
Temp
°C
Dew
Point
Rel
Hum
%
Delta-T
°C
Wind Press
QNH
hPa
Press
MSL
hPa
Rain
since 9 am
mm
Dir
 
Spd
km/h
Gust
km/h
Spd
kts
Gust
kts
26/11:30pm 3.7 -1.3 3.7 100 0.0 SSE 19 26 10 14 1017.4 1009.0 0.0
26/11:00pm 3.8 -1.4 3.8 100 0.0 SSE 20 32 11 17 1017.4 1009.0 0.0
26/10:30pm 3.8 -1.4 3.8 100 0.0 SSE 20 28 11 15 1017.4 1009.0 0.0
26/10:00pm 3.8 -1.2 3.8 100 0.0 SSE 19 26 10 14 1017.4 1009.0 0.0
26/09:30pm 4.0 -0.9 4.0 100 0.0 SSE 19 28 10 15 1017.4 1009.0 0.0
26/09:00pm 4.0 -1.1 3.9 99 0.0 SE 20 30 11 16 1017.3 1008.8 0.0
26/08:30pm 4.4 -0.1 4.3 99 0.0 SSE 17 28 9 15 1017.0 1008.6 0.0
26/08:00pm 4.5 -0.4 4.1 97 0.2 SSE 19 26 10 14 1016.9 1008.5 0.0
26/07:30pm 5.1 0.2 4.2 94 0.4 SSE 19 28 10 15 1016.7 1008.2 0.0
26/07:00pm 5.5 0.4 4.3 92 0.6 SSE 20 30 11 16 1016.2 1007.7 0.0
26/06:30pm 6.6 2.2 4.8 88 0.9 SSE 17 22 9 12 1016.1 1007.6 0.0
26/06:00pm 7.6 3.2 4.6 81 1.5 SE 17 26 9 14 1015.9 1007.5 0.0
26/05:30pm 9.4 4.7 5.2 75 2.1 ESE 19 24 10 13 1015.9 1007.5 0.0
26/05:00pm 10.0 5.7 5.2 72 2.4 SE 17 22 9 12 1016.1 1007.6 0.0
26/04:30pm 10.0 5.4 5.4 73 2.3 ESE 19 24 10 13 1016.2 1007.7 0.0
26/04:00pm 9.9 5.1 4.9 71 2.5 ESE 19 24 10 13 1016.2 1007.7 0.0
26/03:30pm 11.2 6.9 5.3 67 3.0 ESE 17 24 9 13 1016.1 1007.6 0.0
26/03:00pm 12.7 9.3 2.0 48 5.1 NNW 9 17 5 9 1016.3 1007.9 0.0
26/02:30pm 13.0 8.3 1.0 44 5.6 NNW 15 22 8 12 1016.2 1007.7 0.0
26/02:00pm 11.5 6.8 0.6 47 5.0 NNE 15 22 8 12 1016.3 1007.9 0.0
26/01:30pm 11.5 6.9 1.5 50 4.7 N 15 24 8 13 1016.4 1008.0 0.0
26/01:00pm 10.4 5.8 1.8 55 4.0 N 15 26 8 14 1016.4 1008.0 0.0
26/12:30pm 10.3 6.3 3.1 61 3.5 N 13 24 7 13 1016.4 1008.0 0.0
26/12:00pm 9.7 4.7 1.1 55 3.9 NNW 17 28 9 15 1016.3 1007.9 0.0
26/11:30am 9.9 5.1 0.3 51 4.3 NNW 15 28 8 15 1016.3 1007.9 0.0
26/11:00am 8.9 5.0 1.1 58 3.6 N 11 22 6 12 1016.2 1007.7 0.0
26/10:30am 7.7 4.0 4.5 80 1.6 ENE 13 20 7 11 1016.1 1007.6 0.0
26/10:00am 6.2 3.0 5.2 93 0.5 ESE 11 17 6 9 1015.8 1007.4 0.0
26/09:30am 4.5 2.0 4.5 100 0.0 SE 7 13 4 7 1015.7 1007.2 0.0
26/09:00am 3.4 0.6 3.4 100 0.0 SE 7 13 4 7 1015.7 1007.2 0.0
26/08:30am 3.0 -0.6 3.0 100 0.0 SE 11 17 6 9 1015.5 1007.0 0.0
26/08:00am 2.8 -0.4 2.8 100 0.0 SE 9 15 5 8 1015.2 1006.7 0.0
26/07:30am 2.6 -1.1 2.6 100 0.0 SE 11 19 6 10 1014.6 1006.1 0.0
26/07:00am 2.4 -1.3 2.4 100 0.0 SSE 11 15 6 8 1014.5 1006.0 0.0
26/06:30am 2.4 -1.3 2.4 100 0.0 SSE 11 15 6 8 1014.2 1005.6 0.0
26/06:00am 2.5 -0.8 2.5 100 0.0 SSE 9 13 5 7 1013.8 1005.3 0.0
26/05:30am 2.9 -0.3 2.9 100 0.0 S 9 11 5 6 1013.6 1005.0 0.0

Other Formats:

Comma delimited format used in spreadsheet applications
http://www.bom.gov.au/fwo/IDV60801/IDV60801.94903.axf

JavaScript Object Notation format (JSON) in row-major order
http://www.bom.gov.au/fwo/IDV60801/IDV60801.94903.json